Página principal
METAR-TAF:

METAR-TAF

Aeroportos :

Mopti, Mali

latitude: 14-30-46N, longitude: 004-04-46W, altura: 276 m

Observação actual do tempo

O boletim foi feito há 1 hora e 46 minutos, às 12:00 UTC
Vento 6 kt de sudoeste
Temperatura 32°C
Humidade 63%
Pressão 1012 hPa
Visibilidade 10 km ou mais
Nuvens dispersasa uma altura de 2700 ft

METAR: GAMB 301200Z 22006KT 9999 SCT027 32/24 Q1012

Hora: 13:46 (13:46 UTC)


TAF: em falta

Observações e previsões do tempo de mais de 4000 aeroportos (mensagens METAR e TAF).

As estações disponíveis são os pontos amarelos e vermelhos sobre o mapa.

Mova o rato sobre o mapa para ver o nome da estação.

Depois clique no ponto para visualizar as observações e previsões meteorológicas.

Para alterar o mapa : clique nos botões verdes com uma cruz preta para aumentar o zoom; no botão verde com uma pitada de zoom; ou nas setas verdes para mapas adjacentes.


METAR-TAF: